sensor_id;sensor_type;location;lat;lon;timestamp;P1;P2;P0
37775;PMS5003;23614;33.774;130.514;2022-10-13T00:01:42;8;8;
37775;PMS5003;23614;33.774;130.514;2022-10-13T00:04:08;8;8;
37775;PMS5003;23614;33.774;130.514;2022-10-13T00:06:34;6;6;
37775;PMS5003;23614;33.774;130.514;2022-10-13T00:09:00;10;9;
37775;PMS5003;23614;33.774;130.514;2022-10-13T00:11:27;9;9;
37775;PMS5003;23614;33.774;130.514;2022-10-13T00:13:54;7;6;
37775;PMS5003;23614;33.774;130.514;2022-10-13T00:16:19;8;8;
37775;PMS5003;23614;33.774;130.514;2022-10-13T00:18:44;13;10;
37775;PMS5003;23614;33.774;130.514;2022-10-13T00:21:11;8;8;
37775;PMS5003;23614;33.774;130.514;2022-10-13T00:23:37;8;8;
37775;PMS5003;23614;33.774;130.514;2022-10-13T00:26:03;9;7;
37775;PMS5003;23614;33.774;130.514;2022-10-13T00:28:28;10;8;
37775;PMS5003;23614;33.774;130.514;2022-10-13T00:30:54;9;9;
37775;PMS5003;23614;33.774;130.514;2022-10-13T00:33:20;7;7;
37775;PMS5003;23614;33.774;130.514;2022-10-13T00:35:47;8;7;
37775;PMS5003;23614;33.774;130.514;2022-10-13T00:38:12;8;8;
37775;PMS5003;23614;33.774;130.514;2022-10-13T00:40:42;8;7;
37775;PMS5003;23614;33.774;130.514;2022-10-13T00:43:05;11;10;
37775;PMS5003;23614;33.774;130.514;2022-10-13T00:45:30;8;7;
37775;PMS5003;23614;33.774;130.514;2022-10-13T00:47:57;10;8;
37775;PMS5003;23614;33.774;130.514;2022-10-13T00:50:22;10;9;
37775;PMS5003;23614;33.774;130.514;2022-10-13T00:52:48;7;6;
37775;PMS5003;23614;33.774;130.514;2022-10-13T00:55:15;10;10;
37775;PMS5003;23614;33.774;130.514;2022-10-13T00:57:40;9;9;
37775;PMS5003;23614;33.774;130.514;2022-10-13T01:00:07;9;8;
37775;PMS5003;23614;33.774;130.514;2022-10-13T01:02:34;10;9;
37775;PMS5003;23614;33.774;130.514;2022-10-13T01:04:58;9;9;
37775;PMS5003;23614;33.774;130.514;2022-10-13T01:07:24;9;8;
37775;PMS5003;23614;33.774;130.514;2022-10-13T01:09:50;9;9;
37775;PMS5003;23614;33.774;130.514;2022-10-13T01:12:19;9;8;
37775;PMS5003;23614;33.774;130.514;2022-10-13T01:14:43;8;8;
37775;PMS5003;23614;33.774;130.514;2022-10-13T01:17:10;11;9;
37775;PMS5003;23614;33.774;130.514;2022-10-13T01:19:41;9;8;
37775;PMS5003;23614;33.774;130.514;2022-10-13T01:22:03;9;8;
37775;PMS5003;23614;33.774;130.514;2022-10-13T01:24:30;9;8;
37775;PMS5003;23614;33.774;130.514;2022-10-13T01:26:58;10;9;
37775;PMS5003;23614;33.774;130.514;2022-10-13T01:29:26;10;9;
37775;PMS5003;23614;33.774;130.514;2022-10-13T01:31:45;10;9;
37775;PMS5003;23614;33.774;130.514;2022-10-13T01:34:12;10;10;
37775;PMS5003;23614;33.774;130.514;2022-10-13T01:36:38;11;10;
37775;PMS5003;23614;33.774;130.514;2022-10-13T01:39:04;9;9;
37775;PMS5003;23614;33.774;130.514;2022-10-13T01:41:31;9;8;
37775;PMS5003;23614;33.774;130.514;2022-10-13T01:43:56;10;10;
37775;PMS5003;23614;33.774;130.514;2022-10-13T01:46:21;9;9;
37775;PMS5003;23614;33.774;130.514;2022-10-13T01:48:46;9;8;
37775;PMS5003;23614;33.774;130.514;2022-10-13T01:51:13;11;10;
37775;PMS5003;23614;33.774;130.514;2022-10-13T01:53:38;8;8;
37775;PMS5003;23614;33.774;130.514;2022-10-13T01:56:04;7;7;
37775;PMS5003;23614;33.774;130.514;2022-10-13T01:58:31;11;8;
37775;PMS5003;23614;33.774;130.514;2022-10-13T02:01:11;10;8;
37775;PMS5003;23614;33.774;130.514;2022-10-13T02:03:25;12;9;
37775;PMS5003;23614;33.774;130.514;2022-10-13T02:05:52;10;9;
37775;PMS5003;23614;33.774;130.514;2022-10-13T02:08:16;10;9;
37775;PMS5003;23614;33.774;130.514;2022-10-13T02:10:43;9;9;
37775;PMS5003;23614;33.774;130.514;2022-10-13T02:13:06;10;10;
37775;PMS5003;23614;33.774;130.514;2022-10-13T02:15:34;13;12;
37775;PMS5003;23614;33.774;130.514;2022-10-13T02:17:58;11;8;
37775;PMS5003;23614;33.774;130.514;2022-10-13T02:20:24;14;10;
37775;PMS5003;23614;33.774;130.514;2022-10-13T02:22:51;11;11;
37775;PMS5003;23614;33.774;130.514;2022-10-13T02:25:16;10;10;
37775;PMS5003;23614;33.774;130.514;2022-10-13T02:27:43;13;12;
37775;PMS5003;23614;33.774;130.514;2022-10-13T02:30:09;13;11;
37775;PMS5003;23614;33.774;130.514;2022-10-13T02:32:34;11;11;
37775;PMS5003;23614;33.774;130.514;2022-10-13T02:35:00;11;10;
37775;PMS5003;23614;33.774;130.514;2022-10-13T02:37:26;10;10;
37775;PMS5003;23614;33.774;130.514;2022-10-13T02:39:52;12;10;
37775;PMS5003;23614;33.774;130.514;2022-10-13T02:42:18;10;10;
37775;PMS5003;23614;33.774;130.514;2022-10-13T02:44:44;13;10;
37775;PMS5003;23614;33.774;130.514;2022-10-13T02:47:11;11;9;
37775;PMS5003;23614;33.774;130.514;2022-10-13T02:49:36;13;10;
37775;PMS5003;23614;33.774;130.514;2022-10-13T02:52:02;13;12;
37775;PMS5003;23614;33.774;130.514;2022-10-13T02:54:28;10;9;
37775;PMS5003;23614;33.774;130.514;2022-10-13T02:56:54;9;9;
37775;PMS5003;23614;33.774;130.514;2022-10-13T02:59:20;12;11;
37775;PMS5003;23614;33.774;130.514;2022-10-13T03:01:47;10;10;
37775;PMS5003;23614;33.774;130.514;2022-10-13T03:04:12;11;11;
37775;PMS5003;23614;33.774;130.514;2022-10-13T03:06:39;10;10;
37775;PMS5003;23614;33.774;130.514;2022-10-13T03:09:04;9;9;
37775;PMS5003;23614;33.774;130.514;2022-10-13T03:11:30;10;10;
37775;PMS5003;23614;33.774;130.514;2022-10-13T03:13:56;12;11;
37775;PMS5003;23614;33.774;130.514;2022-10-13T03:16:22;10;9;
37775;PMS5003;23614;33.774;130.514;2022-10-13T03:18:48;11;10;
37775;PMS5003;23614;33.774;130.514;2022-10-13T03:21:14;13;11;
37775;PMS5003;23614;33.774;130.514;2022-10-13T03:23:39;12;9;
37775;PMS5003;23614;33.774;130.514;2022-10-13T03:26:05;15;14;
37775;PMS5003;23614;33.774;130.514;2022-10-13T03:28:31;11;9;
37775;PMS5003;23614;33.774;130.514;2022-10-13T03:31:01;13;11;
37775;PMS5003;23614;33.774;130.514;2022-10-13T03:33:23;13;13;
37775;PMS5003;23614;33.774;130.514;2022-10-13T03:35:50;16;14;
37775;PMS5003;23614;33.774;130.514;2022-10-13T03:38:15;13;11;
37775;PMS5003;23614;33.774;130.514;2022-10-13T03:40:41;17;13;
37775;PMS5003;23614;33.774;130.514;2022-10-13T03:43:08;18;14;
37775;PMS5003;23614;33.774;130.514;2022-10-13T03:45:33;16;15;
37775;PMS5003;23614;33.774;130.514;2022-10-13T03:47:59;14;13;
37775;PMS5003;23614;33.774;130.514;2022-10-13T03:50:25;13;12;
37775;PMS5003;23614;33.774;130.514;2022-10-13T03:52:52;9;9;
37775;PMS5003;23614;33.774;130.514;2022-10-13T03:55:18;13;12;
37775;PMS5003;23614;33.774;130.514;2022-10-13T03:57:43;11;11;
37775;PMS5003;23614;33.774;130.514;2022-10-13T04:00:10;11;11;
37775;PMS5003;23614;33.774;130.514;2022-10-13T04:02:36;10;9;
37775;PMS5003;23614;33.774;130.514;2022-10-13T04:05:01;13;12;
37775;PMS5003;23614;33.774;130.514;2022-10-13T04:07:27;12;11;
37775;PMS5003;23614;33.774;130.514;2022-10-13T04:09:54;13;12;
37775;PMS5003;23614;33.774;130.514;2022-10-13T04:12:20;12;11;
37775;PMS5003;23614;33.774;130.514;2022-10-13T04:14:45;16;14;
37775;PMS5003;23614;33.774;130.514;2022-10-13T04:17:11;15;12;
37775;PMS5003;23614;33.774;130.514;2022-10-13T04:19:37;15;14;
37775;PMS5003;23614;33.774;130.514;2022-10-13T04:22:03;15;13;
37775;PMS5003;23614;33.774;130.514;2022-10-13T04:24:29;18;17;
37775;PMS5003;23614;33.774;130.514;2022-10-13T04:26:56;15;14;
37775;PMS5003;23614;33.774;130.514;2022-10-13T04:29:21;16;14;
37775;PMS5003;23614;33.774;130.514;2022-10-13T04:31:48;15;14;
37775;PMS5003;23614;33.774;130.514;2022-10-13T04:34:13;17;17;
37775;PMS5003;23614;33.774;130.514;2022-10-13T04:36:39;18;15;
37775;PMS5003;23614;33.774;130.514;2022-10-13T04:39:05;17;16;
37775;PMS5003;23614;33.774;130.514;2022-10-13T04:41:31;20;16;
37775;PMS5003;23614;33.774;130.514;2022-10-13T04:43:57;16;15;
37775;PMS5003;23614;33.774;130.514;2022-10-13T04:46:24;23;22;
37775;PMS5003;23614;33.774;130.514;2022-10-13T04:48:50;18;16;
37775;PMS5003;23614;33.774;130.514;2022-10-13T04:51:16;18;16;
37775;PMS5003;23614;33.774;130.514;2022-10-13T04:53:41;19;13;
37775;PMS5003;23614;33.774;130.514;2022-10-13T04:56:08;19;15;
37775;PMS5003;23614;33.774;130.514;2022-10-13T04:58:33;17;15;
37775;PMS5003;23614;33.774;130.514;2022-10-13T05:00:59;20;18;
37775;PMS5003;23614;33.774;130.514;2022-10-13T05:03:25;15;14;
37775;PMS5003;23614;33.774;130.514;2022-10-13T05:05:52;12;12;
37775;PMS5003;23614;33.774;130.514;2022-10-13T05:08:17;16;15;
37775;PMS5003;23614;33.774;130.514;2022-10-13T05:10:52;18;16;
37775;PMS5003;23614;33.774;130.514;2022-10-13T05:13:10;17;16;
37775;PMS5003;23614;33.774;130.514;2022-10-13T05:15:37;21;15;
37775;PMS5003;23614;33.774;130.514;2022-10-13T05:18:01;18;17;
37775;PMS5003;23614;33.774;130.514;2022-10-13T05:20:27;13;13;
37775;PMS5003;23614;33.774;130.514;2022-10-13T05:22:53;15;14;
37775;PMS5003;23614;33.774;130.514;2022-10-13T05:25:19;17;15;
37775;PMS5003;23614;33.774;130.514;2022-10-13T05:27:45;16;15;
37775;PMS5003;23614;33.774;130.514;2022-10-13T05:30:11;18;16;
37775;PMS5003;23614;33.774;130.514;2022-10-13T05:32:37;19;17;
37775;PMS5003;23614;33.774;130.514;2022-10-13T05:35:03;21;16;
37775;PMS5003;23614;33.774;130.514;2022-10-13T05:37:35;13;13;
37775;PMS5003;23614;33.774;130.514;2022-10-13T05:39:55;14;13;
37775;PMS5003;23614;33.774;130.514;2022-10-13T05:42:21;18;15;
37775;PMS5003;23614;33.774;130.514;2022-10-13T05:44:47;16;15;
37775;PMS5003;23614;33.774;130.514;2022-10-13T05:47:14;13;12;
37775;PMS5003;23614;33.774;130.514;2022-10-13T05:49:40;14;14;
37775;PMS5003;23614;33.774;130.514;2022-10-13T05:52:06;16;15;
37775;PMS5003;23614;33.774;130.514;2022-10-13T05:54:33;16;12;
37775;PMS5003;23614;33.774;130.514;2022-10-13T05:56:58;20;16;
37775;PMS5003;23614;33.774;130.514;2022-10-13T05:59:24;11;10;
37775;PMS5003;23614;33.774;130.514;2022-10-13T06:01:49;14;13;
37775;PMS5003;23614;33.774;130.514;2022-10-13T06:04:17;12;11;
37775;PMS5003;23614;33.774;130.514;2022-10-13T06:06:41;15;12;
37775;PMS5003;23614;33.774;130.514;2022-10-13T06:09:07;14;14;
37775;PMS5003;23614;33.774;130.514;2022-10-13T06:11:33;12;10;
37775;PMS5003;23614;33.774;130.514;2022-10-13T06:14:00;13;11;
37775;PMS5003;23614;33.774;130.514;2022-10-13T06:16:25;9;9;
37775;PMS5003;23614;33.774;130.514;2022-10-13T06:18:51;11;11;
37775;PMS5003;23614;33.774;130.514;2022-10-13T06:21:17;15;14;
37775;PMS5003;23614;33.774;130.514;2022-10-13T06:23:43;11;11;
37775;PMS5003;23614;33.774;130.514;2022-10-13T06:26:09;14;14;
37775;PMS5003;23614;33.774;130.514;2022-10-13T06:28:35;13;12;
37775;PMS5003;23614;33.774;130.514;2022-10-13T06:31:02;11;10;
37775;PMS5003;23614;33.774;130.514;2022-10-13T06:33:27;9;9;
37775;PMS5003;23614;33.774;130.514;2022-10-13T06:35:53;10;9;
37775;PMS5003;23614;33.774;130.514;2022-10-13T06:38:19;12;11;
37775;PMS5003;23614;33.774;130.514;2022-10-13T06:40:45;12;11;
37775;PMS5003;23614;33.774;130.514;2022-10-13T06:43:11;9;8;
37775;PMS5003;23614;33.774;130.514;2022-10-13T06:45:38;14;11;
37775;PMS5003;23614;33.774;130.514;2022-10-13T06:48:04;12;11;
37775;PMS5003;23614;33.774;130.514;2022-10-13T06:50:29;10;9;
37775;PMS5003;23614;33.774;130.514;2022-10-13T06:52:55;10;10;
37775;PMS5003;23614;33.774;130.514;2022-10-13T06:55:21;12;12;
37775;PMS5003;23614;33.774;130.514;2022-10-13T06:57:47;11;11;
37775;PMS5003;23614;33.774;130.514;2022-10-13T07:00:13;13;12;
37775;PMS5003;23614;33.774;130.514;2022-10-13T07:02:39;13;12;
37775;PMS5003;23614;33.774;130.514;2022-10-13T07:05:05;17;16;
37775;PMS5003;23614;33.774;130.514;2022-10-13T07:07:31;17;15;
37775;PMS5003;23614;33.774;130.514;2022-10-13T07:09:57;15;13;
37775;PMS5003;23614;33.774;130.514;2022-10-13T07:12:23;15;15;
37775;PMS5003;23614;33.774;130.514;2022-10-13T07:14:49;14;10;
37775;PMS5003;23614;33.774;130.514;2022-10-13T07:17:15;14;13;
37775;PMS5003;23614;33.774;130.514;2022-10-13T07:19:41;14;14;
37775;PMS5003;23614;33.774;130.514;2022-10-13T07:22:07;13;12;
37775;PMS5003;23614;33.774;130.514;2022-10-13T07:24:33;15;15;
37775;PMS5003;23614;33.774;130.514;2022-10-13T07:26:59;15;15;
37775;PMS5003;23614;33.774;130.514;2022-10-13T07:29:25;16;16;
37775;PMS5003;23614;33.774;130.514;2022-10-13T07:31:51;23;20;
37775;PMS5003;23614;33.774;130.514;2022-10-13T07:34:17;19;17;
37775;PMS5003;23614;33.774;130.514;2022-10-13T07:36:43;15;12;
37775;PMS5003;23614;33.774;130.514;2022-10-13T07:39:09;14;13;
37775;PMS5003;23614;33.774;130.514;2022-10-13T07:41:35;13;13;
37775;PMS5003;23614;33.774;130.514;2022-10-13T07:44:01;14;14;
37775;PMS5003;23614;33.774;130.514;2022-10-13T07:46:28;13;12;
37775;PMS5003;23614;33.774;130.514;2022-10-13T07:48:53;15;15;
37775;PMS5003;23614;33.774;130.514;2022-10-13T07:51:20;10;10;
37775;PMS5003;23614;33.774;130.514;2022-10-13T07:53:45;12;10;
37775;PMS5003;23614;33.774;130.514;2022-10-13T07:56:12;10;10;
37775;PMS5003;23614;33.774;130.514;2022-10-13T07:58:38;17;13;
37775;PMS5003;23614;33.774;130.514;2022-10-13T08:01:03;11;9;
37775;PMS5003;23614;33.774;130.514;2022-10-13T08:03:29;12;10;
37775;PMS5003;23614;33.774;130.514;2022-10-13T08:05:57;10;10;
37775;PMS5003;23614;33.774;130.514;2022-10-13T08:08:21;13;13;
37775;PMS5003;23614;33.774;130.514;2022-10-13T08:10:47;13;12;
37775;PMS5003;23614;33.774;130.514;2022-10-13T08:13:13;12;12;
37775;PMS5003;23614;33.774;130.514;2022-10-13T08:15:39;11;11;
37775;PMS5003;23614;33.774;130.514;2022-10-13T08:18:05;12;12;
37775;PMS5003;23614;33.774;130.514;2022-10-13T08:20:32;9;9;
37775;PMS5003;23614;33.774;130.514;2022-10-13T08:22:57;9;8;
37775;PMS5003;23614;33.774;130.514;2022-10-13T08:25:23;10;10;
37775;PMS5003;23614;33.774;130.514;2022-10-13T08:27:50;10;9;
37775;PMS5003;23614;33.774;130.514;2022-10-13T08:30:15;10;10;
37775;PMS5003;23614;33.774;130.514;2022-10-13T08:32:41;10;10;
37775;PMS5003;23614;33.774;130.514;2022-10-13T08:35:08;11;11;
37775;PMS5003;23614;33.774;130.514;2022-10-13T08:37:33;13;11;
37775;PMS5003;23614;33.774;130.514;2022-10-13T08:39:59;9;8;
37775;PMS5003;23614;33.774;130.514;2022-10-13T08:42:25;9;9;
37775;PMS5003;23614;33.774;130.514;2022-10-13T08:44:52;11;9;
37775;PMS5003;23614;33.774;130.514;2022-10-13T08:47:23;11;11;
37775;PMS5003;23614;33.774;130.514;2022-10-13T08:49:43;10;10;
37775;PMS5003;23614;33.774;130.514;2022-10-13T08:52:10;13;12;
37775;PMS5003;23614;33.774;130.514;2022-10-13T08:54:35;10;8;
37775;PMS5003;23614;33.774;130.514;2022-10-13T08:57:01;12;11;
37775;PMS5003;23614;33.774;130.514;2022-10-13T08:59:27;11;10;
37775;PMS5003;23614;33.774;130.514;2022-10-13T09:01:53;11;11;
37775;PMS5003;23614;33.774;130.514;2022-10-13T09:04:24;13;11;
37775;PMS5003;23614;33.774;130.514;2022-10-13T09:06:47;14;11;
37775;PMS5003;23614;33.774;130.514;2022-10-13T09:09:12;10;9;
37775;PMS5003;23614;33.774;130.514;2022-10-13T09:11:39;10;10;
37775;PMS5003;23614;33.774;130.514;2022-10-13T09:14:04;12;11;
37775;PMS5003;23614;33.774;130.514;2022-10-13T09:16:32;15;11;
37775;PMS5003;23614;33.774;130.514;2022-10-13T09:19:00;12;12;
37775;PMS5003;23614;33.774;130.514;2022-10-13T09:21:22;13;13;
37775;PMS5003;23614;33.774;130.514;2022-10-13T09:23:48;14;13;
37775;PMS5003;23614;33.774;130.514;2022-10-13T09:26:16;17;14;
37775;PMS5003;23614;33.774;130.514;2022-10-13T09:28:39;12;11;
37775;PMS5003;23614;33.774;130.514;2022-10-13T09:31:12;17;13;
37775;PMS5003;23614;33.774;130.514;2022-10-13T09:33:34;12;12;
37775;PMS5003;23614;33.774;130.514;2022-10-13T09:36:14;12;12;
37775;PMS5003;23614;33.774;130.514;2022-10-13T09:38:23;11;11;
37775;PMS5003;23614;33.774;130.514;2022-10-13T09:40:59;14;13;
37775;PMS5003;23614;33.774;130.514;2022-10-13T09:43:24;10;10;
37775;PMS5003;23614;33.774;130.514;2022-10-13T09:45:41;15;14;
37775;PMS5003;23614;33.774;130.514;2022-10-13T09:48:14;11;11;
37775;PMS5003;23614;33.774;130.514;2022-10-13T09:50:33;12;12;
37775;PMS5003;23614;33.774;130.514;2022-10-13T09:53:10;11;11;
37775;PMS5003;23614;33.774;130.514;2022-10-13T09:55:28;13;12;
37775;PMS5003;23614;33.774;130.514;2022-10-13T09:57:51;11;11;
37775;PMS5003;23614;33.774;130.514;2022-10-13T10:00:18;13;10;
37775;PMS5003;23614;33.774;130.514;2022-10-13T10:02:46;10;10;
37775;PMS5003;23614;33.774;130.514;2022-10-13T10:05:15;11;10;
37775;PMS5003;23614;33.774;130.514;2022-10-13T10:07:35;9;8;
37775;PMS5003;23614;33.774;130.514;2022-10-13T10:10:03;10;10;
37775;PMS5003;23614;33.774;130.514;2022-10-13T10:12:28;9;7;
37775;PMS5003;23614;33.774;130.514;2022-10-13T10:14:53;9;9;
37775;PMS5003;23614;33.774;130.514;2022-10-13T10:17:22;10;9;
37775;PMS5003;23614;33.774;130.514;2022-10-13T10:19:49;13;10;
37775;PMS5003;23614;33.774;130.514;2022-10-13T10:22:14;10;10;
37775;PMS5003;23614;33.774;130.514;2022-10-13T10:24:40;10;10;
37775;PMS5003;23614;33.774;130.514;2022-10-13T10:27:04;9;9;
37775;PMS5003;23614;33.774;130.514;2022-10-13T10:29:33;10;10;
37775;PMS5003;23614;33.774;130.514;2022-10-13T10:32:02;10;10;
37775;PMS5003;23614;33.774;130.514;2022-10-13T10:34:26;12;10;
37775;PMS5003;23614;33.774;130.514;2022-10-13T10:36:48;23;22;
37775;PMS5003;23614;33.774;130.514;2022-10-13T10:39:18;15;14;
37775;PMS5003;23614;33.774;130.514;2022-10-13T10:41:42;18;13;
37775;PMS5003;23614;33.774;130.514;2022-10-13T10:44:07;10;9;
37775;PMS5003;23614;33.774;130.514;2022-10-13T10:46:33;11;9;
37775;PMS5003;23614;33.774;130.514;2022-10-13T10:48:58;7;7;
37775;PMS5003;23614;33.774;130.514;2022-10-13T10:51:25;10;8;
37775;PMS5003;23614;33.774;130.514;2022-10-13T10:53:53;9;9;
37775;PMS5003;23614;33.774;130.514;2022-10-13T10:56:16;10;10;
37775;PMS5003;23614;33.774;130.514;2022-10-13T10:58:43;10;9;
37775;PMS5003;23614;33.774;130.514;2022-10-13T11:01:12;9;9;
37775;PMS5003;23614;33.774;130.514;2022-10-13T11:03:36;10;10;
37775;PMS5003;23614;33.774;130.514;2022-10-13T11:06:01;14;10;
37775;PMS5003;23614;33.774;130.514;2022-10-13T11:08:26;11;9;
37775;PMS5003;23614;33.774;130.514;2022-10-13T11:11:04;12;9;
37775;PMS5003;23614;33.774;130.514;2022-10-13T11:13:17;11;9;
37775;PMS5003;23614;33.774;130.514;2022-10-13T11:15:44;9;9;
37775;PMS5003;23614;33.774;130.514;2022-10-13T11:19:27;11;8;
37775;PMS5003;23614;33.774;130.514;2022-10-13T11:20:47;10;9;
37775;PMS5003;23614;33.774;130.514;2022-10-13T11:23:34;8;8;
37775;PMS5003;23614;33.774;130.514;2022-10-13T11:25:35;12;12;
37775;PMS5003;23614;33.774;130.514;2022-10-13T11:27:53;13;11;
37775;PMS5003;23614;33.774;130.514;2022-10-13T11:30:47;16;14;
37775;PMS5003;23614;33.774;130.514;2022-10-13T11:32:45;10;10;
37775;PMS5003;23614;33.774;130.514;2022-10-13T11:35:17;17;15;
37775;PMS5003;23614;33.774;130.514;2022-10-13T11:37:39;13;13;
37775;PMS5003;23614;33.774;130.514;2022-10-13T11:40:10;13;10;
37775;PMS5003;23614;33.774;130.514;2022-10-13T11:42:33;12;11;
37775;PMS5003;23614;33.774;130.514;2022-10-13T11:44:56;10;9;
37775;PMS5003;23614;33.774;130.514;2022-10-13T11:47:27;11;10;
37775;PMS5003;23614;33.774;130.514;2022-10-13T11:49:51;11;11;
37775;PMS5003;23614;33.774;130.514;2022-10-13T11:52:19;11;11;
37775;PMS5003;23614;33.774;130.514;2022-10-13T11:54:40;14;13;
37775;PMS5003;23614;33.774;130.514;2022-10-13T11:57:15;11;10;
37775;PMS5003;23614;33.774;130.514;2022-10-13T11:59:32;11;11;
37775;PMS5003;23614;33.774;130.514;2022-10-13T12:01:58;15;14;
37775;PMS5003;23614;33.774;130.514;2022-10-13T12:04:25;9;8;
37775;PMS5003;23614;33.774;130.514;2022-10-13T12:06:53;10;9;
37775;PMS5003;23614;33.774;130.514;2022-10-13T12:09:16;10;9;
37775;PMS5003;23614;33.774;130.514;2022-10-13T12:11:41;8;8;
37775;PMS5003;23614;33.774;130.514;2022-10-13T12:14:15;10;9;
37775;PMS5003;23614;33.774;130.514;2022-10-13T12:16:33;7;7;
37775;PMS5003;23614;33.774;130.514;2022-10-13T12:19:08;7;7;
37775;PMS5003;23614;33.774;130.514;2022-10-13T12:21:26;9;9;
37775;PMS5003;23614;33.774;130.514;2022-10-13T12:23:51;9;8;
37775;PMS5003;23614;33.774;130.514;2022-10-13T12:26:18;9;8;
37775;PMS5003;23614;33.774;130.514;2022-10-13T12:28:45;9;8;
37775;PMS5003;23614;33.774;130.514;2022-10-13T12:31:14;9;8;
37775;PMS5003;23614;33.774;130.514;2022-10-13T12:33:36;9;9;
37775;PMS5003;23614;33.774;130.514;2022-10-13T12:36:17;8;7;
37775;PMS5003;23614;33.774;130.514;2022-10-13T12:38:27;8;7;
37775;PMS5003;23614;33.774;130.514;2022-10-13T12:40:53;11;9;
37775;PMS5003;23614;33.774;130.514;2022-10-13T12:43:21;10;10;
37775;PMS5003;23614;33.774;130.514;2022-10-13T12:45:45;11;11;
37775;PMS5003;23614;33.774;130.514;2022-10-13T12:48:41;11;10;
37775;PMS5003;23614;33.774;130.514;2022-10-13T12:50:37;11;11;
37775;PMS5003;23614;33.774;130.514;2022-10-13T12:53:05;12;11;
37775;PMS5003;23614;33.774;130.514;2022-10-13T12:55:29;10;9;
37775;PMS5003;23614;33.774;130.514;2022-10-13T12:57:55;9;9;
37775;PMS5003;23614;33.774;130.514;2022-10-13T13:00:22;11;10;
37775;PMS5003;23614;33.774;130.514;2022-10-13T13:02:50;11;11;
37775;PMS5003;23614;33.774;130.514;2022-10-13T13:05:28;10;10;
37775;PMS5003;23614;33.774;130.514;2022-10-13T13:07:39;10;9;
37775;PMS5003;23614;33.774;130.514;2022-10-13T13:10:14;16;16;
37775;PMS5003;23614;33.774;130.514;2022-10-13T13:12:31;11;10;
37775;PMS5003;23614;33.774;130.514;2022-10-13T13:14:58;10;10;
37775;PMS5003;23614;33.774;130.514;2022-10-13T13:17:26;11;11;
37775;PMS5003;23614;33.774;130.514;2022-10-13T13:19:50;9;8;
37775;PMS5003;23614;33.774;130.514;2022-10-13T13:22:15;10;10;
37775;PMS5003;23614;33.774;130.514;2022-10-13T13:24:41;11;10;
37775;PMS5003;23614;33.774;130.514;2022-10-13T13:27:14;12;11;
37775;PMS5003;23614;33.774;130.514;2022-10-13T13:29:33;10;10;
37775;PMS5003;23614;33.774;130.514;2022-10-13T13:31:59;10;9;
37775;PMS5003;23614;33.774;130.514;2022-10-13T13:34:26;10;9;
37775;PMS5003;23614;33.774;130.514;2022-10-13T13:36:51;12;11;
37775;PMS5003;23614;33.774;130.514;2022-10-13T13:39:18;9;9;
37775;PMS5003;23614;33.774;130.514;2022-10-13T13:41:43;9;7;
37775;PMS5003;23614;33.774;130.514;2022-10-13T13:44:09;12;11;
37775;PMS5003;23614;33.774;130.514;2022-10-13T13:46:35;10;10;
37775;PMS5003;23614;33.774;130.514;2022-10-13T13:49:01;9;8;
37775;PMS5003;23614;33.774;130.514;2022-10-13T13:51:28;12;11;
37775;PMS5003;23614;33.774;130.514;2022-10-13T13:53:53;13;13;
37775;PMS5003;23614;33.774;130.514;2022-10-13T13:56:19;13;13;
37775;PMS5003;23614;33.774;130.514;2022-10-13T13:58:45;12;12;
37775;PMS5003;23614;33.774;130.514;2022-10-13T14:01:12;10;10;
37775;PMS5003;23614;33.774;130.514;2022-10-13T14:03:37;11;11;
37775;PMS5003;23614;33.774;130.514;2022-10-13T14:06:03;12;11;
37775;PMS5003;23614;33.774;130.514;2022-10-13T14:08:29;10;10;
37775;PMS5003;23614;33.774;130.514;2022-10-13T14:10:55;14;13;
37775;PMS5003;23614;33.774;130.514;2022-10-13T14:13:21;11;10;
37775;PMS5003;23614;33.774;130.514;2022-10-13T14:15:55;13;13;
37775;PMS5003;23614;33.774;130.514;2022-10-13T14:18:13;13;11;
37775;PMS5003;23614;33.774;130.514;2022-10-13T14:20:39;11;11;
37775;PMS5003;23614;33.774;130.514;2022-10-13T14:23:05;11;11;
37775;PMS5003;23614;33.774;130.514;2022-10-13T14:25:32;11;11;
37775;PMS5003;23614;33.774;130.514;2022-10-13T14:27:57;10;10;
37775;PMS5003;23614;33.774;130.514;2022-10-13T14:30:23;12;11;
37775;PMS5003;23614;33.774;130.514;2022-10-13T14:32:49;12;12;
37775;PMS5003;23614;33.774;130.514;2022-10-13T14:35:15;13;10;
37775;PMS5003;23614;33.774;130.514;2022-10-13T14:37:41;12;12;
37775;PMS5003;23614;33.774;130.514;2022-10-13T14:40:07;12;11;
37775;PMS5003;23614;33.774;130.514;2022-10-13T14:42:33;11;10;
37775;PMS5003;23614;33.774;130.514;2022-10-13T14:44:59;9;9;
37775;PMS5003;23614;33.774;130.514;2022-10-13T14:47:25;11;11;
37775;PMS5003;23614;33.774;130.514;2022-10-13T14:49:51;11;11;
37775;PMS5003;23614;33.774;130.514;2022-10-13T14:52:18;10;10;
37775;PMS5003;23614;33.774;130.514;2022-10-13T14:54:43;13;11;
37775;PMS5003;23614;33.774;130.514;2022-10-13T14:57:09;12;11;
37775;PMS5003;23614;33.774;130.514;2022-10-13T14:59:35;11;10;
37775;PMS5003;23614;33.774;130.514;2022-10-13T15:02:01;11;11;
37775;PMS5003;23614;33.774;130.514;2022-10-13T15:04:27;15;14;
37775;PMS5003;23614;33.774;130.514;2022-10-13T15:06:53;11;11;
37775;PMS5003;23614;33.774;130.514;2022-10-13T15:09:19;12;12;
37775;PMS5003;23614;33.774;130.514;2022-10-13T15:11:46;10;10;
37775;PMS5003;23614;33.774;130.514;2022-10-13T15:14:11;10;9;
37775;PMS5003;23614;33.774;130.514;2022-10-13T15:16:37;12;11;
37775;PMS5003;23614;33.774;130.514;2022-10-13T15:19:04;14;14;
37775;PMS5003;23614;33.774;130.514;2022-10-13T15:21:29;12;11;
37775;PMS5003;23614;33.774;130.514;2022-10-13T15:23:55;13;12;
37775;PMS5003;23614;33.774;130.514;2022-10-13T15:26:21;15;13;
37775;PMS5003;23614;33.774;130.514;2022-10-13T15:28:49;11;11;
37775;PMS5003;23614;33.774;130.514;2022-10-13T15:31:14;12;10;
37775;PMS5003;23614;33.774;130.514;2022-10-13T15:33:41;11;11;
37775;PMS5003;23614;33.774;130.514;2022-10-13T15:36:05;11;10;
37775;PMS5003;23614;33.774;130.514;2022-10-13T15:38:31;12;11;
37775;PMS5003;23614;33.774;130.514;2022-10-13T15:40:58;11;9;
37775;PMS5003;23614;33.774;130.514;2022-10-13T15:43:23;11;10;
37775;PMS5003;23614;33.774;130.514;2022-10-13T15:45:52;11;11;